Time;durP1;ratioP1;P1;durP2;ratioP2;P2;SDS_P1;SDS_P2;PMS_P1;PMS_P2;Temp;Humidity;BMP_temperature;BMP_pressure;BME280_temperature;BME280_humidity;BME280_pressure;Samples;Min_cycle;Max_cycle;Signal;HPM_P1;HPM_P2
2022/04/28 00:00:54;;;;;;;;;;;13.40;77.70;;;;;;5040810;28;19955;-90
2022/04/28 00:03:19;;;;;;;;;;;13.30;79.30;;;;;;5052056;28;19965;-90
2022/04/28 00:05:45;;;;;;;;;;;13.10;79.90;;;;;;5052695;28;19954;-90
2022/04/28 00:08:10;;;;;;;;;;;13.00;79.80;;;;;;5036082;28;20419;-90
2022/04/28 00:10:37;;;;;;;;;;;12.90;80.00;;;;;;5040052;28;20411;-90
2022/04/28 00:13:03;;;;;;;;;;;12.80;80.20;;;;;;5035516;28;19962;-90
2022/04/28 00:15:29;;;;;;;;;;;12.80;80.60;;;;;;5034350;28;19933;-91
2022/04/28 00:17:55;;;;;;;;;;;12.70;80.70;;;;;;5035128;28;19930;-90
2022/04/28 00:20:20;;;;;;;;;;;12.70;81.30;;;;;;5041311;28;20385;-90
2022/04/28 00:22:46;;;;;;;;;;;12.70;81.50;;;;;;5041921;28;19963;-90
2022/04/28 00:25:11;;;;;;;;;;;12.80;81.30;;;;;;5036257;28;19976;-90
2022/04/28 00:27:37;;;;;;;;;;;12.70;80.70;;;;;;5036249;28;19941;-90
2022/04/28 00:30:03;;;;;;;;;;;12.70;80.60;;;;;;5056101;28;19978;-91
2022/04/28 00:32:29;;;;;;;;;;;12.60;80.80;;;;;;5055810;28;20409;-90
2022/04/28 00:34:54;;;;;;;;;;;12.60;81.00;;;;;;5055882;28;19973;-90
2022/04/28 00:37:21;;;;;;;;;;;12.50;81.50;;;;;;5064309;28;19967;-90
2022/04/28 00:39:47;;;;;;;;;;;12.60;81.40;;;;;;5075612;28;19958;-90
2022/04/28 00:42:13;;;;;;;;;;;12.60;81.60;;;;;;5055893;28;19968;-90
2022/04/28 00:44:39;;;;;;;;;;;12.60;81.60;;;;;;5037910;28;19975;-90
2022/04/28 00:47:05;;;;;;;;;;;12.40;81.90;;;;;;5060747;28;19942;-90
2022/04/28 00:52:15;;;;;;;;;;;12.30;82.30;;;;;;5061393;28;19975;-90
2022/04/28 00:54:41;;;;;;;;;;;12.40;82.20;;;;;;5075640;28;19949;-90
2022/04/28 00:57:07;;;;;;;;;;;12.40;82.20;;;;;;5075285;28;19968;-90
2022/04/28 00:59:33;;;;;;;;;;;12.40;82.40;;;;;;5057605;28;20461;-90
2022/04/28 01:01:58;;;;;;;;;;;12.40;83.10;;;;;;5057476;28;19946;-90
2022/04/28 01:04:24;;;;;;;;;;;12.40;83.90;;;;;;5055646;28;19988;-90
2022/04/28 01:06:52;;;;;;;;;;;12.30;84.30;;;;;;5056103;28;19952;-90
2022/04/28 01:09:17;;;;;;;;;;;12.30;84.50;;;;;;5074353;28;19990;-90
2022/04/28 01:11:44;;;;;;;;;;;12.30;84.20;;;;;;5075384;28;19916;-91
2022/04/28 01:14:09;;;;;;;;;;;12.30;83.80;;;;;;5048315;28;20359;-90
2022/04/28 01:16:35;;;;;;;;;;;12.20;83.70;;;;;;5055270;28;19968;-90
2022/04/28 01:19:00;;;;;;;;;;;12.20;83.80;;;;;;5072114;28;19959;-90
2022/04/28 01:21:26;;;;;;;;;;;12.10;83.60;;;;;;5072718;28;19946;-90
2022/04/28 01:23:51;;;;;;;;;;;12.10;83.70;;;;;;5058177;28;19986;-90
2022/04/28 01:26:18;;;;;;;;;;;12.00;83.90;;;;;;5055493;28;19927;-90
2022/04/28 01:28:43;;;;;;;;;;;12.00;83.80;;;;;;5069361;28;20343;-90
2022/04/28 01:31:09;;;;;;;;;;;11.80;83.60;;;;;;5055054;28;19948;-91
2022/04/28 01:33:34;;;;;;;;;;;11.80;83.80;;;;;;5075119;28;20390;-90
2022/04/28 01:36:04;;;;;;;;;;;11.80;83.60;;;;;;5042539;28;20059;-90
2022/04/28 01:38:29;;;;;;;;;;;11.60;83.30;;;;;;5048652;28;19932;-90
2022/04/28 01:40:55;;;;;;;;;;;11.60;83.20;;;;;;5074834;28;19992;-90
2022/04/28 01:43:20;;;;;;;;;;;11.60;83.20;;;;;;5074751;28;20369;-89
2022/04/28 01:45:46;;;;;;;;;;;11.60;83.30;;;;;;5074726;28;20098;-89
2022/04/28 01:48:11;;;;;;;;;;;11.40;83.20;;;;;;5070098;28;19972;-90
2022/04/28 01:50:37;;;;;;;;;;;11.30;83.10;;;;;;5056585;28;20081;-90
2022/04/28 01:55:47;;;;;;;;;;;11.50;83.90;;;;;;5074496;28;20415;-90
2022/04/28 01:58:12;;;;;;;;;;;11.60;84.10;;;;;;5072435;28;19928;-90
2022/04/28 02:00:38;;;;;;;;;;;11.60;84.10;;;;;;5074461;28;19953;-89
2022/04/28 02:03:03;;;;;;;;;;;11.70;84.20;;;;;;5073467;28;20405;-91
2022/04/28 02:05:29;;;;;;;;;;;11.70;84.10;;;;;;5074294;28;19934;-89
2022/04/28 02:07:55;;;;;;;;;;;11.70;84.30;;;;;;5072817;28;20428;-91
2022/04/28 02:10:21;;;;;;;;;;;11.60;84.40;;;;;;5056249;28;20449;-90
2022/04/28 02:12:46;;;;;;;;;;;11.60;84.50;;;;;;5074171;28;19949;-90
2022/04/28 02:15:12;;;;;;;;;;;11.60;84.30;;;;;;5074082;28;19943;-90
2022/04/28 02:17:38;;;;;;;;;;;11.60;84.20;;;;;;5067901;28;19979;-90
2022/04/28 02:20:04;;;;;;;;;;;11.50;84.00;;;;;;5054373;28;19950;-90
2022/04/28 02:22:31;;;;;;;;;;;11.40;83.90;;;;;;5057579;28;20380;-90
2022/04/28 02:24:57;;;;;;;;;;;11.40;83.80;;;;;;5073956;28;19949;-90
2022/04/28 02:27:24;;;;;;;;;;;11.30;83.90;;;;;;5070856;28;20338;-90
2022/04/28 02:29:52;;;;;;;;;;;11.20;83.60;;;;;;5053752;28;19985;-90
2022/04/28 02:32:18;;;;;;;;;;;11.20;83.70;;;;;;5053714;28;20001;-89
2022/04/28 02:34:43;;;;;;;;;;;11.20;84.00;;;;;;5053710;28;19996;-90
2022/04/28 02:37:09;;;;;;;;;;;11.20;84.20;;;;;;5071223;28;19988;-89
2022/04/28 02:39:35;;;;;;;;;;;11.10;84.30;;;;;;5053304;28;20037;-89
2022/04/28 02:42:00;;;;;;;;;;;11.10;84.60;;;;;;5053625;28;19920;-90
2022/04/28 02:44:26;;;;;;;;;;;11.00;84.60;;;;;;5053596;28;19946;-90
2022/04/28 02:46:51;;;;;;;;;;;10.80;84.70;;;;;;5051095;28;19932;-90
2022/04/28 02:49:17;;;;;;;;;;;10.80;84.90;;;;;;5073410;28;20319;-90
2022/04/28 02:51:43;;;;;;;;;;;10.80;85.10;;;;;;5073747;28;19928;-90
2022/04/28 02:54:09;;;;;;;;;;;10.80;85.80;;;;;;5058736;28;19947;-90
2022/04/28 02:56:35;;;;;;;;;;;10.90;86.10;;;;;;5067840;28;19951;-90
2022/04/28 02:59:01;;;;;;;;;;;10.90;86.30;;;;;;5055383;28;19974;-90
2022/04/28 03:01:26;;;;;;;;;;;10.90;86.30;;;;;;5073350;28;19967;-90
2022/04/28 03:03:52;;;;;;;;;;;10.90;86.20;;;;;;5055149;28;20002;-90
2022/04/28 03:11:47;;;;;;;;;;;10.90;84.80;;;;;;5053516;28;19979;-89
2022/04/28 03:14:12;;;;;;;;;;;10.90;85.00;;;;;;5040030;28;19971;-89
2022/04/28 03:16:38;;;;;;;;;;;11.00;85.00;;;;;;5053064;28;20302;-90
2022/04/28 03:19:04;;;;;;;;;;;11.00;85.30;;;;;;5053037;28;19968;-90
2022/04/28 03:21:30;;;;;;;;;;;10.90;85.40;;;;;;5066292;28;19935;-90
2022/04/28 03:23:55;;;;;;;;;;;10.90;85.40;;;;;;5043215;28;19959;-90
2022/04/28 03:26:21;;;;;;;;;;;10.80;85.30;;;;;;5053053;28;19954;-90
2022/04/28 03:28:47;;;;;;;;;;;10.80;85.10;;;;;;5049319;23;19985;-90
2022/04/28 03:31:12;;;;;;;;;;;10.80;84.70;;;;;;5033057;28;19932;-90
2022/04/28 03:33:38;;;;;;;;;;;10.70;84.70;;;;;;5032650;28;19936;-90
2022/04/28 03:36:50;;;;;;;;;;;10.80;84.90;;;;;;5032971;28;19948;-90
2022/04/28 03:38:49;;;;;;;;;;;10.70;84.80;;;;;;5032554;28;20313;-90
2022/04/28 03:41:15;;;;;;;;;;;10.80;84.80;;;;;;5033050;28;20436;-90
2022/04/28 03:43:40;;;;;;;;;;;10.60;84.30;;;;;;5031616;28;19948;-90
2022/04/28 03:46:06;;;;;;;;;;;10.60;84.40;;;;;;5032926;28;20029;-90
2022/04/28 03:48:32;;;;;;;;;;;10.60;84.60;;;;;;5032658;28;20050;-90
2022/04/28 03:50:58;;;;;;;;;;;10.60;85.00;;;;;;5035457;28;20029;-91
2022/04/28 03:53:23;;;;;;;;;;;10.60;85.10;;;;;;5035107;28;19954;-90
2022/04/28 03:55:49;;;;;;;;;;;10.60;85.20;;;;;;5036730;28;19967;-90
2022/04/28 03:58:14;;;;;;;;;;;10.60;85.40;;;;;;5036535;28;20036;-90
2022/04/28 04:00:41;;;;;;;;;;;10.50;85.50;;;;;;5036601;28;20032;-90
2022/04/28 04:03:07;;;;;;;;;;;10.40;85.90;;;;;;5036476;28;19988;-90
2022/04/28 04:05:32;;;;;;;;;;;10.40;86.50;;;;;;5036700;28;19932;-90
2022/04/28 04:07:58;;;;;;;;;;;10.10;87.80;;;;;;5036567;28;20390;-90
2022/04/28 04:10:24;;;;;;;;;;;10.10;88.50;;;;;;5021956;28;20351;-89
2022/04/28 04:12:49;;;;;;;;;;;10.10;88.60;;;;;;5016843;28;19936;-90
2022/04/28 04:15:15;;;;;;;;;;;10.10;88.50;;;;;;5016791;28;20294;-90
2022/04/28 04:17:41;;;;;;;;;;;10.10;88.60;;;;;;5016677;28;20519;-90
2022/04/28 04:20:07;;;;;;;;;;;10.10;88.70;;;;;;5033471;28;19967;-90
2022/04/28 04:22:32;;;;;;;;;;;9.90;88.90;;;;;;5036684;28;20430;-90
2022/04/28 04:24:58;;;;;;;;;;;9.80;89.40;;;;;;5030085;28;19946;-89
2022/04/28 04:27:24;;;;;;;;;;;9.60;89.70;;;;;;5036256;28;20328;-89
2022/04/28 04:29:50;;;;;;;;;;;9.60;90.00;;;;;;5022023;28;19988;-89
2022/04/28 04:32:18;;;;;;;;;;;9.60;90.00;;;;;;5016296;28;19930;-89
2022/04/28 04:34:45;;;;;;;;;;;9.60;90.00;;;;;;5016932;28;19956;-89
2022/04/28 04:37:11;;;;;;;;;;;9.50;90.00;;;;;;5016183;28;19964;-89
2022/04/28 04:39:37;;;;;;;;;;;9.60;89.80;;;;;;5016896;28;19962;-89
2022/04/28 04:42:02;;;;;;;;;;;9.60;89.80;;;;;;5016247;28;19946;-89
2022/04/28 04:44:28;;;;;;;;;;;9.70;89.60;;;;;;5015946;28;19951;-89
2022/04/28 04:46:53;;;;;;;;;;;9.70;89.40;;;;;;5016169;28;20483;-88
2022/04/28 04:49:19;;;;;;;;;;;9.70;89.20;;;;;;5016220;28;20675;-89
2022/04/28 04:51:45;;;;;;;;;;;9.70;89.20;;;;;;5016050;28;19934;-89
2022/04/28 04:54:11;;;;;;;;;;;9.80;89.00;;;;;;5015122;28;19973;-90
2022/04/28 04:56:36;;;;;;;;;;;9.90;88.80;;;;;;5025772;28;19936;-89
2022/04/28 04:59:05;;;;;;;;;;;9.90;88.60;;;;;;5023462;28;20363;-89
2022/04/28 05:01:30;;;;;;;;;;;10.00;88.50;;;;;;5014699;28;19969;-89
2022/04/28 05:03:56;;;;;;;;;;;10.10;88.30;;;;;;5015038;28;20348;-89
2022/04/28 05:06:21;;;;;;;;;;;10.20;88.00;;;;;;5022377;28;19955;-89
2022/04/28 05:08:47;;;;;;;;;;;10.40;87.40;;;;;;5015027;28;20071;-89
2022/04/28 05:11:12;;;;;;;;;;;10.40;87.20;;;;;;5011975;28;19957;-88
2022/04/28 05:13:38;;;;;;;;;;;10.50;86.90;;;;;;5015141;28;19928;-88
2022/04/28 05:16:04;;;;;;;;;;;10.50;86.50;;;;;;5014661;28;20389;-88
2022/04/28 05:18:29;;;;;;;;;;;10.60;86.40;;;;;;5018200;28;20461;-88
2022/04/28 05:20:55;;;;;;;;;;;10.70;86.50;;;;;;5016771;28;19952;-88
2022/04/28 05:52:51;;;;;;;;;;;10.70;86.50;;;;;;5116629;27;20428;-89
2022/04/28 05:55:17;;;;;;;;;;;12.00;84.80;;;;;;5089325;28;19959;-89
2022/04/28 05:57:42;;;;;;;;;;;12.20;84.50;;;;;;5088837;28;19955;-89
2022/04/28 06:00:08;;;;;;;;;;;12.40;82.60;;;;;;5088499;28;20030;-89
2022/04/28 06:02:34;;;;;;;;;;;12.50;82.10;;;;;;5091482;28;20412;-89
2022/04/28 06:05:00;;;;;;;;;;;12.70;81.80;;;;;;5096902;28;20475;-90
2022/04/28 06:07:25;;;;;;;;;;;12.90;80.00;;;;;;5078228;28;20007;-89
2022/04/28 06:09:51;;;;;;;;;;;13.10;79.30;;;;;;5088549;28;20542;-91
2022/04/28 06:12:17;;;;;;;;;;;13.30;78.40;;;;;;5088078;28;19953;-88
2022/04/28 06:14:43;;;;;;;;;;;13.50;77.10;;;;;;5089447;28;20008;-88
2022/04/28 06:17:09;;;;;;;;;;;13.70;76.60;;;;;;5085396;28;19964;-90
2022/04/28 06:19:35;;;;;;;;;;;13.80;75.80;;;;;;5088035;28;19947;-89
2022/04/28 06:22:00;;;;;;;;;;;14.00;75.50;;;;;;5093586;28;19952;-89
2022/04/28 06:24:26;;;;;;;;;;;14.20;74.30;;;;;;5105217;28;19958;-89
2022/04/28 06:26:51;;;;;;;;;;;14.40;74.20;;;;;;5079451;28;20011;-90
2022/04/28 06:29:17;;;;;;;;;;;14.50;73.10;;;;;;5088650;28;20363;-90
2022/04/28 06:31:42;;;;;;;;;;;14.70;73.10;;;;;;5087205;28;20051;-90
2022/04/28 06:34:08;;;;;;;;;;;14.80;73.40;;;;;;5083678;28;20116;-89
2022/04/28 06:36:34;;;;;;;;;;;14.90;72.50;;;;;;5091643;28;20066;-89
2022/04/28 06:41:22;;;;;;;;;;;15.00;71.70;;;;;;5097412;27;20194;-88
2022/04/28 06:43:48;;;;;;;;;;;14.60;72.70;;;;;;5090037;28;20667;-88
2022/04/28 06:46:13;;;;;;;;;;;14.40;73.50;;;;;;5094439;28;20005;-88
2022/04/28 06:48:39;;;;;;;;;;;14.30;75.00;;;;;;5087496;28;19950;-88
2022/04/28 06:51:05;;;;;;;;;;;14.30;75.30;;;;;;5085124;28;20030;-89
2022/04/28 06:53:30;;;;;;;;;;;14.30;75.60;;;;;;5084819;28;20349;-90
2022/04/28 06:55:56;;;;;;;;;;;14.40;75.60;;;;;;5088845;28;19975;-89
2022/04/28 06:58:21;;;;;;;;;;;14.50;75.10;;;;;;5096499;28;20372;-89
2022/04/28 07:00:49;;;;;;;;;;;14.60;74.30;;;;;;5092065;28;20347;-89
2022/04/28 07:03:14;;;;;;;;;;;14.70;73.30;;;;;;5089057;28;19951;-89
2022/04/28 07:05:40;;;;;;;;;;;14.80;73.70;;;;;;5092425;28;20332;-89
2022/04/28 07:08:05;;;;;;;;;;;14.70;73.60;;;;;;5097675;28;19953;-89
2022/04/28 07:10:31;;;;;;;;;;;14.70;74.30;;;;;;5087223;28;19984;-89
2022/04/28 07:12:57;;;;;;;;;;;14.80;74.10;;;;;;5085488;28;19956;-89
2022/04/28 07:15:22;;;;;;;;;;;14.90;73.90;;;;;;5074477;28;19960;-89
2022/04/28 07:17:48;;;;;;;;;;;15.00;72.40;;;;;;5075882;28;19973;-90
2022/04/28 07:20:13;;;;;;;;;;;15.20;71.60;;;;;;5080416;28;19957;-89
2022/04/28 07:26:15;;;;;;;;;;;15.30;70.10;;;;;;5095009;27;19960;-88
2022/04/28 07:28:41;;;;;;;;;;;15.30;70.20;;;;;;5100600;28;20420;-88
2022/04/28 07:31:06;;;;;;;;;;;15.30;72.80;;;;;;5088921;28;19950;-88
2022/04/28 07:35:24;;;;;;;;;;;15.40;72.00;;;;;;5104793;27;20287;-88
2022/04/28 07:37:50;;;;;;;;;;;15.40;72.10;;;;;;5092287;28;20463;-90
2022/04/28 07:40:15;;;;;;;;;;;15.50;72.20;;;;;;5088445;28;19961;-90
2022/04/28 07:42:41;;;;;;;;;;;15.60;72.20;;;;;;5082625;28;19983;-91
2022/04/28 07:45:06;;;;;;;;;;;15.70;71.10;;;;;;5083682;28;19947;-90
2022/04/28 07:47:32;;;;;;;;;;;15.70;69.60;;;;;;5091890;28;20354;-90
2022/04/28 07:49:58;;;;;;;;;;;15.70;69.70;;;;;;5109973;27;19950;-89
2022/04/28 07:52:24;;;;;;;;;;;15.70;69.70;;;;;;5090335;28;19943;-90
2022/04/28 07:54:49;;;;;;;;;;;15.80;69.00;;;;;;5104648;28;19992;-90
2022/04/28 07:57:15;;;;;;;;;;;15.90;69.50;;;;;;5095442;28;20050;-90
2022/04/28 07:59:41;;;;;;;;;;;15.90;69.20;;;;;;5087431;28;20016;-90
2022/04/28 08:02:09;;;;;;;;;;;16.00;68.90;;;;;;5087728;28;19943;-89
2022/04/28 08:04:34;;;;;;;;;;;16.00;68.60;;;;;;5086134;28;20028;-90
2022/04/28 08:07:00;;;;;;;;;;;16.20;68.90;;;;;;5089366;28;20090;-91
2022/04/28 08:24:44;;;;;;;;;;;16.30;69.00;;;;;;5104762;27;19976;-89
2022/04/28 08:27:10;;;;;;;;;;;16.60;58.80;;;;;;5090195;28;19942;-90
2022/04/28 08:29:35;;;;;;;;;;;16.70;57.60;;;;;;5101442;28;20036;-90
2022/04/28 08:32:01;;;;;;;;;;;16.80;55.80;;;;;;5090693;28;20035;-90
2022/04/28 08:34:26;;;;;;;;;;;16.90;56.00;;;;;;5095399;28;19968;-89
2022/04/28 08:36:52;;;;;;;;;;;17.10;57.10;;;;;;5076975;28;20385;-90
2022/04/28 08:39:18;;;;;;;;;;;17.30;56.70;;;;;;5103207;28;19919;-90
2022/04/28 08:41:47;;;;;;;;;;;17.40;56.50;;;;;;5085370;28;20016;-89
2022/04/28 08:44:18;;;;;;;;;;;17.50;54.80;;;;;;5086944;28;20006;-90
2022/04/28 08:46:50;;;;;;;;;;;17.60;56.10;;;;;;5096056;28;20007;-90
2022/04/28 08:49:17;;;;;;;;;;;17.70;56.20;;;;;;5090383;28;19975;-91
2022/04/28 08:51:43;;;;;;;;;;;17.80;56.50;;;;;;5089764;28;19986;-90
2022/04/28 08:58:54;;;;;;;;;;;17.90;56.20;;;;;;5142624;27;20467;-89
2022/04/28 09:07:09;;;;;;;;;;;17.70;55.80;;;;;;5131888;27;19941;-92
2022/04/28 09:09:35;;;;;;;;;;;17.80;57.30;;;;;;5112310;28;19973;-90
2022/04/28 09:12:01;;;;;;;;;;;17.80;52.40;;;;;;5103471;28;19982;-90
2022/04/28 09:14:27;;;;;;;;;;;17.70;52.50;;;;;;5100623;28;19976;-90
2022/04/28 09:16:59;;;;;;;;;;;17.80;57.10;;;;;;5110428;28;19957;-90
2022/04/28 09:19:25;;;;;;;;;;;18.00;54.70;;;;;;5110535;28;19963;-90
2022/04/28 09:21:53;;;;;;;;;;;17.80;53.00;;;;;;5104447;28;19936;-90
2022/04/28 09:24:19;;;;;;;;;;;18.00;52.40;;;;;;5093545;28;19925;-90
2022/04/28 09:26:46;;;;;;;;;;;18.20;53.60;;;;;;5081520;28;20460;-91
2022/04/28 09:29:12;;;;;;;;;;;18.20;52.20;;;;;;5105526;28;19944;-90
2022/04/28 09:31:38;;;;;;;;;;;18.30;53.90;;;;;;5107227;28;20010;-90
2022/04/28 09:34:14;;;;;;;;;;;18.60;55.30;;;;;;5111787;28;20369;-90
2022/04/28 09:36:41;;;;;;;;;;;18.80;52.60;;;;;;5089572;28;19982;-91
2022/04/28 09:39:07;;;;;;;;;;;19.00;50.40;;;;;;5106492;28;19932;-91
2022/04/28 09:46:29;;;;;;;;;;;19.10;49.70;;;;;;5069536;28;19981;-90
2022/04/28 09:48:54;;;;;;;;;;;19.10;49.90;;;;;;5062859;28;20057;-90
2022/04/28 09:53:45;;;;;;;;;;;19.20;48.70;;;;;;5141419;27;19979;-91
2022/04/28 09:56:11;;;;;;;;;;;19.50;49.10;;;;;;5125603;28;19939;-89
2022/04/28 10:00:40;;;;;;;;;;;19.80;48.40;;;;;;5103662;27;20441;-90
2022/04/28 10:03:08;;;;;;;;;;;20.30;47.20;;;;;;5113649;28;19911;-90
2022/04/28 10:05:34;;;;;;;;;;;20.50;46.90;;;;;;5117400;28;20321;-91
2022/04/28 10:08:01;;;;;;;;;;;20.60;48.20;;;;;;5134450;27;19952;-90
2022/04/28 10:10:26;;;;;;;;;;;20.40;48.90;;;;;;5104889;28;19912;-90
2022/04/28 10:12:53;;;;;;;;;;;20.10;48.70;;;;;;5107841;28;19942;-90
2022/04/28 10:15:21;;;;;;;;;;;19.90;48.90;;;;;;5105955;28;19919;-90
2022/04/28 10:17:48;;;;;;;;;;;19.80;52.70;;;;;;5099007;28;19955;-91
2022/04/28 10:20:18;;;;;;;;;;;19.80;53.80;;;;;;5095352;28;19974;-90
2022/04/28 10:35:33;;;;;;;;;;;20.10;49.30;;;;;;5126553;27;19976;-90
2022/04/28 10:38:10;;;;;;;;;;;19.80;52.00;;;;;;5120415;28;19968;-91
2022/04/28 10:40:37;;;;;;;;;;;20.00;51.60;;;;;;5122692;28;20489;-90
2022/04/28 10:43:02;;;;;;;;;;;20.10;47.90;;;;;;5115595;28;19952;-90
2022/04/28 10:45:37;;;;;;;;;;;20.10;47.50;;;;;;5119732;27;19987;-91
2022/04/28 10:48:29;;;;;;;;;;;20.10;48.20;;;;;;5125216;27;19955;-90
2022/04/28 10:50:59;;;;;;;;;;;20.10;50.30;;;;;;5123462;27;19915;-91
2022/04/28 10:53:24;;;;;;;;;;;19.90;46.50;;;;;;5138781;27;20055;-90
2022/04/28 10:55:50;;;;;;;;;;;20.20;45.60;;;;;;5118398;28;20027;-90
2022/04/28 10:58:21;;;;;;;;;;;20.40;44.90;;;;;;5121525;27;20039;-90
2022/04/28 11:00:53;;;;;;;;;;;20.60;45.80;;;;;;5124950;27;20134;-90
2022/04/28 11:09:38;;;;;;;;;;;19.90;48.40;;;;;;5104006;27;19920;-88
2022/04/28 11:12:11;;;;;;;;;;;20.30;53.40;;;;;;5097600;28;20405;-88
2022/04/28 11:15:47;;;;;;;;;;;20.50;50.20;;;;;;5118740;27;20435;-88
2022/04/28 11:18:13;;;;;;;;;;;20.50;46.50;;;;;;5116948;27;19972;-87
2022/04/28 11:21:39;;;;;;;;;;;20.70;48.60;;;;;;5007098;28;19974;-88
2022/04/28 11:24:06;;;;;;;;;;;20.80;48.40;;;;;;5006663;28;19949;-88
2022/04/28 11:26:32;;;;;;;;;;;20.80;45.80;;;;;;5007328;28;20083;-87
2022/04/28 11:29:04;;;;;;;;;;;20.60;45.60;;;;;;5000718;28;20127;-88
2022/04/28 11:31:31;;;;;;;;;;;20.60;44.50;;;;;;5007500;28;20024;-88
2022/04/28 11:33:57;;;;;;;;;;;20.50;43.50;;;;;;5009964;28;19942;-88
2022/04/28 11:36:27;;;;;;;;;;;20.80;43.20;;;;;;5011299;28;19920;-88
2022/04/28 11:38:54;;;;;;;;;;;21.20;44.50;;;;;;5006649;28;19978;-88
2022/04/28 12:28:34;;;;;;;;;;;21.10;43.80;;;;;;5115564;27;19922;-88
2022/04/28 12:31:02;;;;;;;;;;;23.60;38.00;;;;;;5096492;28;19913;-88
2022/04/28 12:33:28;;;;;;;;;;;23.60;39.00;;;;;;5095504;28;19916;-88
2022/04/28 12:35:57;;;;;;;;;;;22.70;43.50;;;;;;5097133;28;20002;-88
2022/04/28 12:40:26;;;;;;;;;;;22.30;39.30;;;;;;5120793;27;19922;-88
2022/04/28 12:42:53;;;;;;;;;;;22.90;41.20;;;;;;5107349;28;19976;-89
2022/04/28 12:45:41;;;;;;;;;;;23.90;38.50;;;;;;5118148;28;19912;-89
2022/04/28 12:48:21;;;;;;;;;;;24.90;36.30;;;;;;5110596;28;20003;-88
2022/04/28 12:50:48;;;;;;;;;;;25.10;34.60;;;;;;5117732;28;19983;-88
2022/04/28 12:53:33;;;;;;;;;;;25.20;34.90;;;;;;5119272;28;20024;-89
2022/04/28 12:56:03;;;;;;;;;;;26.20;34.40;;;;;;5107429;28;19942;-89
2022/04/28 12:58:28;;;;;;;;;;;27.00;30.90;;;;;;5114070;28;19946;-89
2022/04/28 13:00:54;;;;;;;;;;;27.10;31.60;;;;;;5105573;28;19957;-89
2022/04/28 13:03:28;;;;;;;;;;;27.10;31.60;;;;;;5098901;28;19912;-89
2022/04/28 13:05:53;;;;;;;;;;;28.00;31.90;;;;;;5115844;27;19916;-89
2022/04/28 13:08:19;;;;;;;;;;;29.20;29.90;;;;;;5115410;28;20500;-89
2022/04/28 13:12:30;;;;;;;;;;;29.40;28.80;;;;;;5109284;27;20445;-89
2022/04/28 13:14:56;;;;;;;;;;;30.30;27.70;;;;;;5117297;28;19975;-88
2022/04/28 13:17:22;;;;;;;;;;;29.90;28.80;;;;;;5113142;28;19920;-88
2022/04/28 13:19:47;;;;;;;;;;;29.10;28.60;;;;;;5105538;28;19934;-87
2022/04/28 13:22:13;;;;;;;;;;;28.70;28.90;;;;;;5107282;28;20005;-88
2022/04/28 13:24:39;;;;;;;;;;;28.80;27.80;;;;;;5110310;28;19916;-88
2022/04/28 13:27:04;;;;;;;;;;;29.70;28.30;;;;;;5105793;28;19976;-88
2022/04/28 13:29:30;;;;;;;;;;;29.30;28.80;;;;;;5110940;28;19978;-88
2022/04/28 13:31:55;;;;;;;;;;;29.20;28.40;;;;;;5113414;28;19916;-88
2022/04/28 13:34:21;;;;;;;;;;;28.30;31.00;;;;;;5111818;28;19981;-88
2022/04/28 13:36:46;;;;;;;;;;;28.20;30.30;;;;;;5114530;28;19980;-88
2022/04/28 13:40:48;;;;;;;;;;;28.60;31.30;;;;;;5105809;27;20449;-88
2022/04/28 13:43:13;;;;;;;;;;;28.10;30.20;;;;;;5116038;28;19918;-88
2022/04/28 13:45:39;;;;;;;;;;;27.70;30.20;;;;;;5118544;28;19955;-88
2022/04/28 13:48:05;;;;;;;;;;;27.20;30.80;;;;;;5114013;28;19939;-88
2022/04/28 13:50:31;;;;;;;;;;;27.00;31.30;;;;;;5118473;28;20006;-88
2022/04/28 13:52:57;;;;;;;;;;;27.50;30.80;;;;;;5121805;28;20075;-88
2022/04/28 13:55:22;;;;;;;;;;;28.20;29.20;;;;;;5119318;28;19937;-89
2022/04/28 13:57:48;;;;;;;;;;;28.50;27.80;;;;;;5113672;28;20002;-88
2022/04/28 14:00:14;;;;;;;;;;;27.80;28.70;;;;;;5109612;28;19978;-89
2022/04/28 14:02:40;;;;;;;;;;;28.20;29.40;;;;;;5118586;28;20357;-88
2022/04/28 14:05:06;;;;;;;;;;;27.60;30.70;;;;;;5112885;28;19919;-88
2022/04/28 14:07:33;;;;;;;;;;;27.60;30.20;;;;;;5105155;28;20022;-89
2022/04/28 14:09:58;;;;;;;;;;;28.60;28.00;;;;;;5114600;28;19923;-88
2022/04/28 14:12:25;;;;;;;;;;;28.20;28.00;;;;;;5111234;28;19973;-88
2022/04/28 14:14:50;;;;;;;;;;;27.80;31.90;;;;;;5118359;28;19955;-89
2022/04/28 14:17:16;;;;;;;;;;;28.20;29.20;;;;;;5119679;28;20290;-89
2022/04/28 14:19:42;;;;;;;;;;;28.50;27.60;;;;;;5108843;28;19999;-89
2022/04/28 14:22:07;;;;;;;;;;;28.80;29.80;;;;;;5118551;28;19919;-89
2022/04/28 14:24:33;;;;;;;;;;;28.60;29.10;;;;;;5099160;28;19978;-89
2022/04/28 14:26:59;;;;;;;;;;;28.40;27.90;;;;;;5105193;28;20381;-89
2022/04/28 14:29:24;;;;;;;;;;;28.40;29.80;;;;;;5116094;28;19916;-89
2022/04/28 14:33:33;;;;;;;;;;;28.10;30.90;;;;;;5100917;27;19960;-91
2022/04/28 14:35:59;;;;;;;;;;;27.00;30.80;;;;;;5099605;28;19919;-91
2022/04/28 14:38:24;;;;;;;;;;;27.40;30.10;;;;;;5102434;28;19959;-91
2022/04/28 14:40:50;;;;;;;;;;;27.40;31.30;;;;;;5095003;28;19974;-91
2022/04/28 14:43:16;;;;;;;;;;;26.50;31.60;;;;;;5093439;28;19978;-88
2022/04/28 14:45:43;;;;;;;;;;;26.00;32.10;;;;;;5092302;28;19959;-88
2022/04/28 14:48:08;;;;;;;;;;;26.20;33.40;;;;;;5091465;28;19942;-89
2022/04/28 14:53:18;;;;;;;;;;;27.00;29.70;;;;;;5094668;28;20043;-89
2022/04/28 14:55:43;;;;;;;;;;;28.30;28.70;;;;;;5097915;28;19967;-89
2022/04/28 14:58:09;;;;;;;;;;;28.40;29.00;;;;;;5100646;28;20026;-88
2022/04/28 15:00:35;;;;;;;;;;;27.90;28.40;;;;;;5093753;28;19965;-90
2022/04/28 15:03:01;;;;;;;;;;;27.40;31.30;;;;;;5095960;28;19935;-89
2022/04/28 15:05:27;;;;;;;;;;;27.60;32.50;;;;;;5088973;28;20577;-88
2022/04/28 15:07:53;;;;;;;;;;;27.50;30.20;;;;;;5093499;28;20009;-89
2022/04/28 15:10:19;;;;;;;;;;;27.30;29.80;;;;;;5088861;28;20434;-89
2022/04/28 15:12:46;;;;;;;;;;;27.80;28.50;;;;;;5093468;28;19920;-90
2022/04/28 15:15:14;;;;;;;;;;;28.10;27.20;;;;;;5085960;28;20011;-90
2022/04/28 15:17:40;;;;;;;;;;;28.30;27.60;;;;;;5086775;28;19913;-90
2022/04/28 15:20:08;;;;;;;;;;;28.00;29.30;;;;;;5081702;28;19923;-89
2022/04/28 15:22:33;;;;;;;;;;;28.40;29.00;;;;;;5084825;28;20075;-90
2022/04/28 15:24:59;;;;;;;;;;;28.50;28.70;;;;;;5088259;28;20070;-90
2022/04/28 15:27:25;;;;;;;;;;;28.70;27.90;;;;;;5090669;28;19981;-89
2022/04/28 15:30:38;;;;;;;;;;;28.20;28.80;;;;;;5134532;27;19975;-90
2022/04/28 15:33:05;;;;;;;;;;;28.80;27.30;;;;;;5133077;27;20438;-89
2022/04/28 15:35:30;;;;;;;;;;;27.90;28.80;;;;;;5120972;28;20365;-90
2022/04/28 15:37:56;;;;;;;;;;;28.30;27.90;;;;;;5123460;27;19956;-90
2022/04/28 15:40:22;;;;;;;;;;;29.00;27.30;;;;;;5130078;27;19916;-90
2022/04/28 15:42:50;;;;;;;;;;;29.20;27.90;;;;;;5112406;28;19983;-90
2022/04/28 15:45:17;;;;;;;;;;;28.60;27.10;;;;;;5114201;27;19949;-90
2022/04/28 15:47:42;;;;;;;;;;;29.10;26.40;;;;;;5128551;28;19911;-90
2022/04/28 15:50:08;;;;;;;;;;;29.20;28.30;;;;;;5122177;27;20340;-90
2022/04/28 15:52:34;;;;;;;;;;;28.40;27.80;;;;;;5151882;27;19908;-90
2022/04/28 15:55:00;;;;;;;;;;;28.10;28.70;;;;;;5131053;27;20220;-90
2022/04/28 15:57:25;;;;;;;;;;;27.50;28.80;;;;;;5124001;27;19983;-90
2022/04/28 15:59:51;;;;;;;;;;;27.20;33.00;;;;;;5126325;28;19949;-90
2022/04/28 16:02:18;;;;;;;;;;;27.30;29.50;;;;;;5130225;28;19919;-90
2022/04/28 16:04:44;;;;;;;;;;;27.20;32.00;;;;;;5130208;28;19973;-90
2022/04/28 16:07:10;;;;;;;;;;;27.10;29.80;;;;;;5133544;27;20033;-90
2022/04/28 16:09:35;;;;;;;;;;;27.30;30.20;;;;;;5120990;27;19935;-90
2022/04/28 16:12:01;;;;;;;;;;;26.60;31.10;;;;;;5112276;28;19981;-90
2022/04/28 16:14:27;;;;;;;;;;;26.20;31.40;;;;;;5116853;28;19923;-90
2022/04/28 16:16:52;;;;;;;;;;;25.90;32.30;;;;;;5115418;28;19955;-90
2022/04/28 16:19:21;;;;;;;;;;;25.40;32.40;;;;;;5114810;28;19958;-89
2022/04/28 16:21:47;;;;;;;;;;;25.30;33.50;;;;;;5113145;28;19919;-89
2022/04/28 16:24:13;;;;;;;;;;;24.90;34.30;;;;;;5112893;28;19977;-89
2022/04/28 16:26:38;;;;;;;;;;;24.70;33.90;;;;;;5116086;28;19969;-90
2022/04/28 16:29:04;;;;;;;;;;;24.80;32.90;;;;;;5117038;28;19983;-90
2022/04/28 16:31:30;;;;;;;;;;;24.50;35.00;;;;;;5117930;28;21097;-90
2022/04/28 16:33:55;;;;;;;;;;;24.40;33.20;;;;;;5110955;28;19923;-90
2022/04/28 16:36:22;;;;;;;;;;;24.60;35.50;;;;;;5116186;28;19912;-90
2022/04/28 16:38:47;;;;;;;;;;;24.30;36.90;;;;;;5117970;28;19912;-90
2022/04/28 16:41:13;;;;;;;;;;;24.00;37.30;;;;;;5109765;28;19954;-90
2022/04/28 16:43:39;;;;;;;;;;;23.80;37.40;;;;;;5110227;28;20341;-90
2022/04/28 16:46:05;;;;;;;;;;;23.90;36.70;;;;;;5115577;28;19912;-90
2022/04/28 16:48:31;;;;;;;;;;;23.60;35.20;;;;;;5109713;28;19972;-90
2022/04/28 16:50:56;;;;;;;;;;;23.50;40.10;;;;;;5111168;28;20048;-90
2022/04/28 16:53:24;;;;;;;;;;;23.30;37.00;;;;;;5110107;28;20059;-90
2022/04/28 16:55:50;;;;;;;;;;;23.10;36.70;;;;;;5110183;28;19911;-90